sensor_id;sensor_type;location;lat;lon;timestamp;temperature;humidity
1800;DHT22;919;48.274;12.292;2023-02-11T00:01:25;-4.00;99.90
1800;DHT22;919;48.274;12.292;2023-02-11T00:03:52;-4.10;99.90
1800;DHT22;919;48.274;12.292;2023-02-11T00:06:21;-4.30;99.90
1800;DHT22;919;48.274;12.292;2023-02-11T00:08:48;-4.30;99.90
1800;DHT22;919;48.274;12.292;2023-02-11T00:11:17;-4.30;99.90
1800;DHT22;919;48.274;12.292;2023-02-11T00:13:44;-4.30;99.90
1800;DHT22;919;48.274;12.292;2023-02-11T00:16:12;-4.30;99.90
1800;DHT22;919;48.274;12.292;2023-02-11T00:18:39;-4.20;99.90
1800;DHT22;919;48.274;12.292;2023-02-11T00:21:07;-4.20;99.90
1800;DHT22;919;48.274;12.292;2023-02-11T00:23:36;-4.30;99.90
1800;DHT22;919;48.274;12.292;2023-02-11T00:26:03;-4.40;99.90
1800;DHT22;919;48.274;12.292;2023-02-11T00:28:30;-4.40;99.90
1800;DHT22;919;48.274;12.292;2023-02-11T00:30:57;-4.40;99.90
1800;DHT22;919;48.274;12.292;2023-02-11T00:33:26;-4.50;99.90
1800;DHT22;919;48.274;12.292;2023-02-11T00:35:52;-4.50;99.90
1800;DHT22;919;48.274;12.292;2023-02-11T00:38:19;-4.60;99.90
1800;DHT22;919;48.274;12.292;2023-02-11T00:40:47;-4.60;99.90
1800;DHT22;919;48.274;12.292;2023-02-11T00:43:14;-4.60;99.90
1800;DHT22;919;48.274;12.292;2023-02-11T00:45:40;-4.50;99.90
1800;DHT22;919;48.274;12.292;2023-02-11T00:48:07;-4.50;99.90
1800;DHT22;919;48.274;12.292;2023-02-11T00:50:34;-4.40;99.90
1800;DHT22;919;48.274;12.292;2023-02-11T00:53:00;-4.40;99.90
1800;DHT22;919;48.274;12.292;2023-02-11T00:55:27;-4.30;99.90
1800;DHT22;919;48.274;12.292;2023-02-11T00:57:55;-4.30;99.90
1800;DHT22;919;48.274;12.292;2023-02-11T01:00:23;-4.30;99.90
1800;DHT22;919;48.274;12.292;2023-02-11T01:02:49;-4.40;99.90
1800;DHT22;919;48.274;12.292;2023-02-11T01:05:16;-4.40;99.90
1800;DHT22;919;48.274;12.292;2023-02-11T01:07:43;-4.40;99.90
1800;DHT22;919;48.274;12.292;2023-02-11T01:10:10;-4.40;99.90
1800;DHT22;919;48.274;12.292;2023-02-11T01:12:37;-4.50;99.90
1800;DHT22;919;48.274;12.292;2023-02-11T01:15:08;-4.50;99.90
1800;DHT22;919;48.274;12.292;2023-02-11T01:17:35;-4.50;99.90
1800;DHT22;919;48.274;12.292;2023-02-11T01:20:03;-4.50;99.90
1800;DHT22;919;48.274;12.292;2023-02-11T01:22:30;-4.50;99.90
1800;DHT22;919;48.274;12.292;2023-02-11T01:24:56;-4.50;99.90
1800;DHT22;919;48.274;12.292;2023-02-11T01:27:23;-4.50;99.90
1800;DHT22;919;48.274;12.292;2023-02-11T01:29:50;-4.50;99.90
1800;DHT22;919;48.274;12.292;2023-02-11T01:32:18;-4.60;99.90
1800;DHT22;919;48.274;12.292;2023-02-11T01:34:44;-4.60;99.90
1800;DHT22;919;48.274;12.292;2023-02-11T01:37:11;-4.60;99.90
1800;DHT22;919;48.274;12.292;2023-02-11T01:39:38;-4.70;99.90
1800;DHT22;919;48.274;12.292;2023-02-11T01:42:05;-4.80;99.90
1800;DHT22;919;48.274;12.292;2023-02-11T01:44:33;-4.70;99.90
1800;DHT22;919;48.274;12.292;2023-02-11T01:47:01;-4.80;99.90
1800;DHT22;919;48.274;12.292;2023-02-11T01:49:32;-4.80;99.90
1800;DHT22;919;48.274;12.292;2023-02-11T01:52:04;-4.90;99.90
1800;DHT22;919;48.274;12.292;2023-02-11T01:54:36;-4.90;99.90
1800;DHT22;919;48.274;12.292;2023-02-11T01:57:24;-5.00;99.90
1800;DHT22;919;48.274;12.292;2023-02-11T01:59:57;-5.00;99.90
1800;DHT22;919;48.274;12.292;2023-02-11T02:02:28;-5.00;99.90
1800;DHT22;919;48.274;12.292;2023-02-11T02:05:02;-4.90;99.90
1800;DHT22;919;48.274;12.292;2023-02-11T02:07:33;-4.90;99.90
1800;DHT22;919;48.274;12.292;2023-02-11T02:10:04;-4.80;99.90
1800;DHT22;919;48.274;12.292;2023-02-11T02:12:33;-4.80;99.90
1800;DHT22;919;48.274;12.292;2023-02-11T02:15:23;-4.90;99.90
1800;DHT22;919;48.274;12.292;2023-02-11T02:18:01;-5.00;99.90
1800;DHT22;919;48.274;12.292;2023-02-11T02:21:03;-5.00;99.90
1800;DHT22;919;48.274;12.292;2023-02-11T02:23:41;-5.00;99.90
1800;DHT22;919;48.274;12.292;2023-02-11T02:26:35;-5.00;99.90
1800;DHT22;919;48.274;12.292;2023-02-11T02:29:33;-5.00;99.90
1800;DHT22;919;48.274;12.292;2023-02-11T02:32:37;-5.00;99.90
1800;DHT22;919;48.274;12.292;2023-02-11T02:35:12;-5.10;99.90
1800;DHT22;919;48.274;12.292;2023-02-11T02:37:43;-5.10;99.90
1800;DHT22;919;48.274;12.292;2023-02-11T02:40:17;-5.20;99.90
1800;DHT22;919;48.274;12.292;2023-02-11T02:42:46;-5.20;99.90
1800;DHT22;919;48.274;12.292;2023-02-11T02:45:13;-5.10;99.90
1800;DHT22;919;48.274;12.292;2023-02-11T02:47:42;-5.10;99.90
1800;DHT22;919;48.274;12.292;2023-02-11T02:50:09;-5.10;99.90
1800;DHT22;919;48.274;12.292;2023-02-11T02:52:41;-5.10;99.90
1800;DHT22;919;48.274;12.292;2023-02-11T02:55:22;-5.10;99.90
1800;DHT22;919;48.274;12.292;2023-02-11T02:58:03;-5.10;99.90
1800;DHT22;919;48.274;12.292;2023-02-11T03:00:34;-5.10;99.90
1800;DHT22;919;48.274;12.292;2023-02-11T03:03:16;-5.10;99.90
1800;DHT22;919;48.274;12.292;2023-02-11T03:05:48;-5.10;99.90
1800;DHT22;919;48.274;12.292;2023-02-11T03:08:24;-5.00;99.90
1800;DHT22;919;48.274;12.292;2023-02-11T03:10:53;-5.00;99.90
1800;DHT22;919;48.274;12.292;2023-02-11T03:13:25;-5.00;99.90
1800;DHT22;919;48.274;12.292;2023-02-11T03:15:55;-5.10;99.90
1800;DHT22;919;48.274;12.292;2023-02-11T03:18:27;-5.10;99.90
1800;DHT22;919;48.274;12.292;2023-02-11T03:20:55;-5.10;99.90
1800;DHT22;919;48.274;12.292;2023-02-11T03:23:25;-5.10;99.90
1800;DHT22;919;48.274;12.292;2023-02-11T03:25:57;-5.10;99.90
1800;DHT22;919;48.274;12.292;2023-02-11T03:28:29;-5.10;99.90
1800;DHT22;919;48.274;12.292;2023-02-11T03:31:06;-5.10;99.90
1800;DHT22;919;48.274;12.292;2023-02-11T03:33:39;-5.20;99.90
1800;DHT22;919;48.274;12.292;2023-02-11T03:36:11;-5.10;99.90
1800;DHT22;919;48.274;12.292;2023-02-11T03:38:46;-5.10;99.90
1800;DHT22;919;48.274;12.292;2023-02-11T03:41:15;-5.10;99.90
1800;DHT22;919;48.274;12.292;2023-02-11T03:43:45;-5.10;99.90
1800;DHT22;919;48.274;12.292;2023-02-11T03:46:17;-5.00;99.90
1800;DHT22;919;48.274;12.292;2023-02-11T03:48:48;-5.00;99.90
1800;DHT22;919;48.274;12.292;2023-02-11T03:51:17;-4.90;99.90
1800;DHT22;919;48.274;12.292;2023-02-11T03:53:46;-4.90;99.90
1800;DHT22;919;48.274;12.292;2023-02-11T03:56:17;-4.80;99.90
1800;DHT22;919;48.274;12.292;2023-02-11T03:58:45;-4.80;99.90
1800;DHT22;919;48.274;12.292;2023-02-11T04:01:11;-4.80;99.90
1800;DHT22;919;48.274;12.292;2023-02-11T04:03:38;-4.70;99.90
1800;DHT22;919;48.274;12.292;2023-02-11T04:06:07;-4.80;99.90
1800;DHT22;919;48.274;12.292;2023-02-11T04:08:34;-4.70;99.90
1800;DHT22;919;48.274;12.292;2023-02-11T04:11:01;-4.70;99.90
1800;DHT22;919;48.274;12.292;2023-02-11T04:13:28;-4.70;99.90
1800;DHT22;919;48.274;12.292;2023-02-11T04:15:55;-4.70;99.90
1800;DHT22;919;48.274;12.292;2023-02-11T04:18:21;-4.70;99.90
1800;DHT22;919;48.274;12.292;2023-02-11T04:20:49;-4.70;99.90
1800;DHT22;919;48.274;12.292;2023-02-11T04:23:17;-4.70;99.90
1800;DHT22;919;48.274;12.292;2023-02-11T04:25:44;-4.80;99.90
1800;DHT22;919;48.274;12.292;2023-02-11T04:28:10;-4.90;99.90
1800;DHT22;919;48.274;12.292;2023-02-11T04:30:37;-5.00;99.90
1800;DHT22;919;48.274;12.292;2023-02-11T04:33:04;-5.00;99.90
1800;DHT22;919;48.274;12.292;2023-02-11T04:35:30;-5.10;99.90
1800;DHT22;919;48.274;12.292;2023-02-11T04:37:57;-5.00;99.90
1800;DHT22;919;48.274;12.292;2023-02-11T04:40:25;-5.00;99.90
1800;DHT22;919;48.274;12.292;2023-02-11T04:42:52;-5.10;99.90
1800;DHT22;919;48.274;12.292;2023-02-11T04:45:19;-5.00;99.90
1800;DHT22;919;48.274;12.292;2023-02-11T04:47:45;-5.00;99.90
1800;DHT22;919;48.274;12.292;2023-02-11T04:50:12;-5.00;99.90
1800;DHT22;919;48.274;12.292;2023-02-11T04:52:39;-4.90;99.90
1800;DHT22;919;48.274;12.292;2023-02-11T04:55:06;-4.90;99.90
1800;DHT22;919;48.274;12.292;2023-02-11T04:57:34;-4.90;99.90
1800;DHT22;919;48.274;12.292;2023-02-11T05:00:00;-4.90;99.90
1800;DHT22;919;48.274;12.292;2023-02-11T05:02:27;-4.80;99.90
1800;DHT22;919;48.274;12.292;2023-02-11T05:04:54;-4.80;99.90
1800;DHT22;919;48.274;12.292;2023-02-11T05:07:20;-4.80;99.90
1800;DHT22;919;48.274;12.292;2023-02-11T05:09:47;-4.70;99.90
1800;DHT22;919;48.274;12.292;2023-02-11T05:12:14;-4.70;99.90
1800;DHT22;919;48.274;12.292;2023-02-11T05:14:42;-4.70;99.90
1800;DHT22;919;48.274;12.292;2023-02-11T05:17:08;-4.60;99.90
1800;DHT22;919;48.274;12.292;2023-02-11T05:19:35;-4.60;99.90
1800;DHT22;919;48.274;12.292;2023-02-11T05:22:02;-4.50;99.90
1800;DHT22;919;48.274;12.292;2023-02-11T05:24:29;-4.50;99.90
1800;DHT22;919;48.274;12.292;2023-02-11T05:26:55;-4.50;99.90
1800;DHT22;919;48.274;12.292;2023-02-11T05:29:22;-4.50;99.90
1800;DHT22;919;48.274;12.292;2023-02-11T05:31:50;-4.40;99.90
1800;DHT22;919;48.274;12.292;2023-02-11T05:34:17;-4.40;99.90
1800;DHT22;919;48.274;12.292;2023-02-11T05:36:43;-4.40;99.90
1800;DHT22;919;48.274;12.292;2023-02-11T05:39:10;-4.40;99.90
1800;DHT22;919;48.274;12.292;2023-02-11T05:41:37;-4.50;99.90
1800;DHT22;919;48.274;12.292;2023-02-11T05:44:03;-4.40;99.90
1800;DHT22;919;48.274;12.292;2023-02-11T05:46:30;-4.30;99.90
1800;DHT22;919;48.274;12.292;2023-02-11T05:48:58;-4.30;99.90
1800;DHT22;919;48.274;12.292;2023-02-11T05:51:25;-4.30;99.90
1800;DHT22;919;48.274;12.292;2023-02-11T05:53:51;-4.20;99.90
1800;DHT22;919;48.274;12.292;2023-02-11T05:56:18;-4.20;99.90
1800;DHT22;919;48.274;12.292;2023-02-11T05:58:45;-4.20;99.90
1800;DHT22;919;48.274;12.292;2023-02-11T06:01:12;-4.20;99.90
1800;DHT22;919;48.274;12.292;2023-02-11T06:03:38;-4.10;99.90
1800;DHT22;919;48.274;12.292;2023-02-11T06:06:10;-4.20;99.90
1800;DHT22;919;48.274;12.292;2023-02-11T06:08:37;-4.10;99.90
1800;DHT22;919;48.274;12.292;2023-02-11T06:11:03;-4.00;99.90
1800;DHT22;919;48.274;12.292;2023-02-11T06:13:30;-4.00;99.90
1800;DHT22;919;48.274;12.292;2023-02-11T06:15:58;-3.90;99.90
1800;DHT22;919;48.274;12.292;2023-02-11T06:18:25;-3.90;99.90
1800;DHT22;919;48.274;12.292;2023-02-11T06:20:51;-4.00;99.90
1800;DHT22;919;48.274;12.292;2023-02-11T06:23:20;-4.10;99.90
1800;DHT22;919;48.274;12.292;2023-02-11T06:25:46;-4.00;99.90
1800;DHT22;919;48.274;12.292;2023-02-11T06:28:13;-4.00;99.90
1800;DHT22;919;48.274;12.292;2023-02-11T06:30:40;-3.90;99.90
1800;DHT22;919;48.274;12.292;2023-02-11T06:33:06;-3.80;99.90
1800;DHT22;919;48.274;12.292;2023-02-11T06:35:33;-3.80;99.90
1800;DHT22;919;48.274;12.292;2023-02-11T06:38:01;-3.70;99.90
1800;DHT22;919;48.274;12.292;2023-02-11T06:40:29;-3.60;99.90
1800;DHT22;919;48.274;12.292;2023-02-11T06:42:56;-3.60;99.90
1800;DHT22;919;48.274;12.292;2023-02-11T06:45:22;-3.50;99.90
1800;DHT22;919;48.274;12.292;2023-02-11T06:47:50;-3.50;99.90
1800;DHT22;919;48.274;12.292;2023-02-11T06:50:17;-3.40;99.90
1800;DHT22;919;48.274;12.292;2023-02-11T06:52:43;-3.40;99.90
1800;DHT22;919;48.274;12.292;2023-02-11T06:55:10;-3.30;99.90
1800;DHT22;919;48.274;12.292;2023-02-11T06:57:38;-3.20;99.90
1800;DHT22;919;48.274;12.292;2023-02-11T07:00:06;-3.20;99.90
1800;DHT22;919;48.274;12.292;2023-02-11T07:02:33;-3.10;99.90
1800;DHT22;919;48.274;12.292;2023-02-11T07:04:59;-3.00;99.90
1800;DHT22;919;48.274;12.292;2023-02-11T07:07:26;-3.00;99.90
1800;DHT22;919;48.274;12.292;2023-02-11T07:09:53;-3.00;99.90
1800;DHT22;919;48.274;12.292;2023-02-11T07:12:20;-2.90;99.90
1800;DHT22;919;48.274;12.292;2023-02-11T07:14:48;-3.00;99.90
1800;DHT22;919;48.274;12.292;2023-02-11T07:17:14;-3.00;99.90
1800;DHT22;919;48.274;12.292;2023-02-11T07:19:41;-3.00;99.90
1800;DHT22;919;48.274;12.292;2023-02-11T07:22:08;-2.90;99.90
1800;DHT22;919;48.274;12.292;2023-02-11T07:24:34;-2.90;99.90
1800;DHT22;919;48.274;12.292;2023-02-11T07:27:01;-2.80;99.90
1800;DHT22;919;48.274;12.292;2023-02-11T07:29:28;-2.80;99.90
1800;DHT22;919;48.274;12.292;2023-02-11T07:31:56;-2.70;99.90
1800;DHT22;919;48.274;12.292;2023-02-11T07:34:23;-2.60;99.90
1800;DHT22;919;48.274;12.292;2023-02-11T07:36:50;-2.50;99.90
1800;DHT22;919;48.274;12.292;2023-02-11T07:39:16;-2.40;99.90
1800;DHT22;919;48.274;12.292;2023-02-11T07:41:44;-2.40;99.90
1800;DHT22;919;48.274;12.292;2023-02-11T07:44:12;-2.40;99.90
1800;DHT22;919;48.274;12.292;2023-02-11T07:46:38;-2.30;99.90
1800;DHT22;919;48.274;12.292;2023-02-11T07:49:08;-2.20;99.90
1800;DHT22;919;48.274;12.292;2023-02-11T07:51:35;-2.00;99.90
1800;DHT22;919;48.274;12.292;2023-02-11T07:54:02;-1.90;99.90
1800;DHT22;919;48.274;12.292;2023-02-11T07:56:29;-1.70;99.90
1800;DHT22;919;48.274;12.292;2023-02-11T07:58:59;-1.60;99.90
1800;DHT22;919;48.274;12.292;2023-02-11T08:01:27;-1.40;99.90
1800;DHT22;919;48.274;12.292;2023-02-11T08:03:54;-1.20;99.90
1800;DHT22;919;48.274;12.292;2023-02-11T08:06:25;-1.10;99.90
1800;DHT22;919;48.274;12.292;2023-02-11T08:08:52;-1.00;99.90
1800;DHT22;919;48.274;12.292;2023-02-11T08:11:21;-0.80;99.90
1800;DHT22;919;48.274;12.292;2023-02-11T08:13:48;-0.70;99.90
1800;DHT22;919;48.274;12.292;2023-02-11T08:16:18;-0.60;99.90
1800;DHT22;919;48.274;12.292;2023-02-11T08:18:45;-0.50;99.90
1800;DHT22;919;48.274;12.292;2023-02-11T08:21:12;-0.60;99.90
1800;DHT22;919;48.274;12.292;2023-02-11T08:23:41;-0.50;99.90
1800;DHT22;919;48.274;12.292;2023-02-11T08:26:10;-0.40;99.90
1800;DHT22;919;48.274;12.292;2023-02-11T08:28:39;-0.40;99.90
1800;DHT22;919;48.274;12.292;2023-02-11T08:31:07;-0.40;99.90
1800;DHT22;919;48.274;12.292;2023-02-11T08:33:34;-0.40;99.90
1800;DHT22;919;48.274;12.292;2023-02-11T08:36:01;-0.40;99.90
1800;DHT22;919;48.274;12.292;2023-02-11T08:38:32;-0.20;99.90
1800;DHT22;919;48.274;12.292;2023-02-11T08:41:00;-0.10;99.90
1800;DHT22;919;48.274;12.292;2023-02-11T08:43:27;0.00;99.90
1800;DHT22;919;48.274;12.292;2023-02-11T08:45:54;0.00;99.90
1800;DHT22;919;48.274;12.292;2023-02-11T08:48:21;0.00;99.90
1800;DHT22;919;48.274;12.292;2023-02-11T08:50:47;0.10;99.90
1800;DHT22;919;48.274;12.292;2023-02-11T08:53:14;0.20;99.90
1800;DHT22;919;48.274;12.292;2023-02-11T08:55:47;0.30;99.90
1800;DHT22;919;48.274;12.292;2023-02-11T08:58:15;0.40;99.90
1800;DHT22;919;48.274;12.292;2023-02-11T09:00:42;0.50;99.90
1800;DHT22;919;48.274;12.292;2023-02-11T09:03:09;0.60;99.90
1800;DHT22;919;48.274;12.292;2023-02-11T09:05:40;0.60;99.90
1800;DHT22;919;48.274;12.292;2023-02-11T09:08:06;0.70;99.90
1800;DHT22;919;48.274;12.292;2023-02-11T09:10:33;0.90;99.90
1800;DHT22;919;48.274;12.292;2023-02-11T09:12:59;1.10;99.90
1800;DHT22;919;48.274;12.292;2023-02-11T09:15:27;1.20;99.90
1800;DHT22;919;48.274;12.292;2023-02-11T09:17:54;1.20;99.90
1800;DHT22;919;48.274;12.292;2023-02-11T09:20:21;1.30;99.90
1800;DHT22;919;48.274;12.292;2023-02-11T09:22:48;1.40;99.90
1800;DHT22;919;48.274;12.292;2023-02-11T09:25:14;1.50;99.90
1800;DHT22;919;48.274;12.292;2023-02-11T09:27:41;1.70;99.90
1800;DHT22;919;48.274;12.292;2023-02-11T09:30:09;1.90;99.90
1800;DHT22;919;48.274;12.292;2023-02-11T09:32:37;2.30;99.90
1800;DHT22;919;48.274;12.292;2023-02-11T09:35:04;2.50;99.90
1800;DHT22;919;48.274;12.292;2023-02-11T09:37:31;2.70;99.90
1800;DHT22;919;48.274;12.292;2023-02-11T09:39:58;2.80;99.90
1800;DHT22;919;48.274;12.292;2023-02-11T09:42:38;2.70;99.90
1800;DHT22;919;48.274;12.292;2023-02-11T09:45:12;3.10;99.90
1800;DHT22;919;48.274;12.292;2023-02-11T09:47:47;3.30;99.90
1800;DHT22;919;48.274;12.292;2023-02-11T09:50:18;3.50;99.90
1800;DHT22;919;48.274;12.292;2023-02-11T09:52:49;3.70;99.90
1800;DHT22;919;48.274;12.292;2023-02-11T09:55:20;3.90;99.90
1800;DHT22;919;48.274;12.292;2023-02-11T09:57:48;4.10;99.90
1800;DHT22;919;48.274;12.292;2023-02-11T10:00:19;4.10;99.90
1800;DHT22;919;48.274;12.292;2023-02-11T10:02:58;4.00;99.90
1800;DHT22;919;48.274;12.292;2023-02-11T10:05:47;4.00;99.90
1800;DHT22;919;48.274;12.292;2023-02-11T10:08:21;4.30;99.90
1800;DHT22;919;48.274;12.292;2023-02-11T10:10:56;4.60;99.90
1800;DHT22;919;48.274;12.292;2023-02-11T10:13:46;4.80;99.90
1800;DHT22;919;48.274;12.292;2023-02-11T10:16:24;4.90;99.90
1800;DHT22;919;48.274;12.292;2023-02-11T10:19:08;4.90;99.90
1800;DHT22;919;48.274;12.292;2023-02-11T10:21:43;4.80;99.90
1800;DHT22;919;48.274;12.292;2023-02-11T10:24:15;4.80;99.90
1800;DHT22;919;48.274;12.292;2023-02-11T10:26:43;4.70;99.90
1800;DHT22;919;48.274;12.292;2023-02-11T10:29:22;4.70;99.90
1800;DHT22;919;48.274;12.292;2023-02-11T10:31:50;4.80;99.90
1800;DHT22;919;48.274;12.292;2023-02-11T10:34:20;4.80;99.90
1800;DHT22;919;48.274;12.292;2023-02-11T10:36:46;4.80;99.90
1800;DHT22;919;48.274;12.292;2023-02-11T10:39:15;5.00;99.90
1800;DHT22;919;48.274;12.292;2023-02-11T10:41:44;5.00;99.90
1800;DHT22;919;48.274;12.292;2023-02-11T10:44:24;4.80;99.90
1800;DHT22;919;48.274;12.292;2023-02-11T10:46:53;4.60;99.90
1800;DHT22;919;48.274;12.292;2023-02-11T10:49:36;4.60;99.90
1800;DHT22;919;48.274;12.292;2023-02-11T10:52:17;4.90;99.90
1800;DHT22;919;48.274;12.292;2023-02-11T10:55:03;5.40;99.90
1800;DHT22;919;48.274;12.292;2023-02-11T10:57:33;5.70;99.90
1800;DHT22;919;48.274;12.292;2023-02-11T11:00:05;5.80;99.90
1800;DHT22;919;48.274;12.292;2023-02-11T11:02:35;6.00;99.90
1800;DHT22;919;48.274;12.292;2023-02-11T11:05:14;5.90;99.90
1800;DHT22;919;48.274;12.292;2023-02-11T11:07:51;5.90;99.90
1800;DHT22;919;48.274;12.292;2023-02-11T11:10:30;5.80;99.90
1800;DHT22;919;48.274;12.292;2023-02-11T11:12:57;5.90;99.90
1800;DHT22;919;48.274;12.292;2023-02-11T11:15:25;6.00;99.90
1800;DHT22;919;48.274;12.292;2023-02-11T11:18:09;6.30;99.90
1800;DHT22;919;48.274;12.292;2023-02-11T11:20:37;6.40;99.90
1800;DHT22;919;48.274;12.292;2023-02-11T11:23:14;6.40;99.90
1800;DHT22;919;48.274;12.292;2023-02-11T11:25:45;6.40;99.90
1800;DHT22;919;48.274;12.292;2023-02-11T11:28:25;6.30;99.90
1800;DHT22;919;48.274;12.292;2023-02-11T11:30:54;6.30;99.90
1800;DHT22;919;48.274;12.292;2023-02-11T11:33:25;6.20;99.90
1800;DHT22;919;48.274;12.292;2023-02-11T11:35:58;6.00;99.90
1800;DHT22;919;48.274;12.292;2023-02-11T11:38:26;5.80;99.90
1800;DHT22;919;48.274;12.292;2023-02-11T11:41:18;5.60;99.90
1800;DHT22;919;48.274;12.292;2023-02-11T11:43:56;5.50;99.90
1800;DHT22;919;48.274;12.292;2023-02-11T11:46:25;5.40;99.90
1800;DHT22;919;48.274;12.292;2023-02-11T11:48:57;5.30;99.90
1800;DHT22;919;48.274;12.292;2023-02-11T11:51:29;5.20;99.90
1800;DHT22;919;48.274;12.292;2023-02-11T11:54:00;5.10;99.90
1800;DHT22;919;48.274;12.292;2023-02-11T11:56:30;5.00;99.90
1800;DHT22;919;48.274;12.292;2023-02-11T11:58:59;4.90;99.90
1800;DHT22;919;48.274;12.292;2023-02-11T12:01:34;4.90;99.90
1800;DHT22;919;48.274;12.292;2023-02-11T12:04:25;4.90;99.90
1800;DHT22;919;48.274;12.292;2023-02-11T12:07:10;4.80;99.90
1800;DHT22;919;48.274;12.292;2023-02-11T12:09:52;4.70;99.90
1800;DHT22;919;48.274;12.292;2023-02-11T12:12:36;4.80;99.90
1800;DHT22;919;48.274;12.292;2023-02-11T12:15:14;4.90;99.90
1800;DHT22;919;48.274;12.292;2023-02-11T12:17:59;5.00;99.90
1800;DHT22;919;48.274;12.292;2023-02-11T12:20:37;5.00;99.90
1800;DHT22;919;48.274;12.292;2023-02-11T12:23:31;4.90;99.90
1800;DHT22;919;48.274;12.292;2023-02-11T12:26:09;5.00;99.90
1800;DHT22;919;48.274;12.292;2023-02-11T12:28:43;5.00;99.90
1800;DHT22;919;48.274;12.292;2023-02-11T12:31:28;5.00;99.90
1800;DHT22;919;48.274;12.292;2023-02-11T12:34:07;5.10;99.90
1800;DHT22;919;48.274;12.292;2023-02-11T12:36:46;5.00;99.90
1800;DHT22;919;48.274;12.292;2023-02-11T12:39:36;5.00;99.90
1800;DHT22;919;48.274;12.292;2023-02-11T12:42:23;5.10;99.90
1800;DHT22;919;48.274;12.292;2023-02-11T12:45:21;5.20;99.90
1800;DHT22;919;48.274;12.292;2023-02-11T12:48:00;5.20;99.90
1800;DHT22;919;48.274;12.292;2023-02-11T12:50:36;5.20;99.90
1800;DHT22;919;48.274;12.292;2023-02-11T12:53:20;5.30;99.90
1800;DHT22;919;48.274;12.292;2023-02-11T12:55:56;5.30;99.90
1800;DHT22;919;48.274;12.292;2023-02-11T12:58:26;5.30;99.90
1800;DHT22;919;48.274;12.292;2023-02-11T13:00:59;5.30;99.90
1800;DHT22;919;48.274;12.292;2023-02-11T13:03:32;5.40;99.90
1800;DHT22;919;48.274;12.292;2023-02-11T13:06:03;5.30;99.90
1800;DHT22;919;48.274;12.292;2023-02-11T13:08:32;5.40;99.90
1800;DHT22;919;48.274;12.292;2023-02-11T13:11:06;5.40;99.90
1800;DHT22;919;48.274;12.292;2023-02-11T13:13:39;5.50;99.90
1800;DHT22;919;48.274;12.292;2023-02-11T13:16:17;5.50;99.90
1800;DHT22;919;48.274;12.292;2023-02-11T13:18:50;5.50;99.90
1800;DHT22;919;48.274;12.292;2023-02-11T13:21:30;5.60;99.90
1800;DHT22;919;48.274;12.292;2023-02-11T13:24:06;5.60;99.90
1800;DHT22;919;48.274;12.292;2023-02-11T13:26:41;5.80;99.90
1800;DHT22;919;48.274;12.292;2023-02-11T13:29:22;5.70;99.90
1800;DHT22;919;48.274;12.292;2023-02-11T13:31:53;5.80;99.90
1800;DHT22;919;48.274;12.292;2023-02-11T13:34:24;5.80;99.90
1800;DHT22;919;48.274;12.292;2023-02-11T13:36:55;5.90;99.90
1800;DHT22;919;48.274;12.292;2023-02-11T13:39:22;6.00;99.90
1800;DHT22;919;48.274;12.292;2023-02-11T13:41:50;6.20;99.90
1800;DHT22;919;48.274;12.292;2023-02-11T13:44:27;6.30;99.90
1800;DHT22;919;48.274;12.292;2023-02-11T13:46:56;6.20;99.90
1800;DHT22;919;48.274;12.292;2023-02-11T13:49:28;6.10;99.90
1800;DHT22;919;48.274;12.292;2023-02-11T13:51:56;5.90;99.90
1800;DHT22;919;48.274;12.292;2023-02-11T13:54:28;5.90;99.90
1800;DHT22;919;48.274;12.292;2023-02-11T13:57:22;5.90;99.90
1800;DHT22;919;48.274;12.292;2023-02-11T13:59:52;5.80;99.90
1800;DHT22;919;48.274;12.292;2023-02-11T14:02:23;5.80;99.90
1800;DHT22;919;48.274;12.292;2023-02-11T14:05:27;5.80;99.90
1800;DHT22;919;48.274;12.292;2023-02-11T14:08:20;5.80;99.90
1800;DHT22;919;48.274;12.292;2023-02-11T14:14:15;5.70;99.90
1800;DHT22;919;48.274;12.292;2023-02-11T14:19:49;5.60;99.90
1800;DHT22;919;48.274;12.292;2023-02-11T14:22:20;5.60;99.90
1800;DHT22;919;48.274;12.292;2023-02-11T14:24:51;5.50;99.90
1800;DHT22;919;48.274;12.292;2023-02-11T14:27:24;5.50;99.90
1800;DHT22;919;48.274;12.292;2023-02-11T14:30:10;5.50;99.90
1800;DHT22;919;48.274;12.292;2023-02-11T14:32:48;5.50;99.90
1800;DHT22;919;48.274;12.292;2023-02-11T14:35:22;5.40;99.90
1800;DHT22;919;48.274;12.292;2023-02-11T14:37:57;5.40;99.90
1800;DHT22;919;48.274;12.292;2023-02-11T14:40:29;5.30;99.90
1800;DHT22;919;48.274;12.292;2023-02-11T14:43:02;5.20;99.90
1800;DHT22;919;48.274;12.292;2023-02-11T14:45:34;5.10;99.90
1800;DHT22;919;48.274;12.292;2023-02-11T14:48:05;5.10;99.90
1800;DHT22;919;48.274;12.292;2023-02-11T14:50:37;5.10;99.90
1800;DHT22;919;48.274;12.292;2023-02-11T14:53:06;5.10;99.90
1800;DHT22;919;48.274;12.292;2023-02-11T14:55:40;5.00;99.90
1800;DHT22;919;48.274;12.292;2023-02-11T14:58:13;5.00;99.90
1800;DHT22;919;48.274;12.292;2023-02-11T15:00:50;4.90;99.90
1800;DHT22;919;48.274;12.292;2023-02-11T15:03:38;4.90;99.90
1800;DHT22;919;48.274;12.292;2023-02-11T15:06:11;4.90;99.90
1800;DHT22;919;48.274;12.292;2023-02-11T15:08:44;4.80;99.90
1800;DHT22;919;48.274;12.292;2023-02-11T15:11:14;4.80;99.90
1800;DHT22;919;48.274;12.292;2023-02-11T15:13:42;4.80;99.90
1800;DHT22;919;48.274;12.292;2023-02-11T15:16:15;4.80;99.90
1800;DHT22;919;48.274;12.292;2023-02-11T15:18:46;4.70;99.90
1800;DHT22;919;48.274;12.292;2023-02-11T15:21:19;4.80;99.90
1800;DHT22;919;48.274;12.292;2023-02-11T15:23:54;4.80;99.90
1800;DHT22;919;48.274;12.292;2023-02-11T15:26:22;4.70;99.90
1800;DHT22;919;48.274;12.292;2023-02-11T15:28:48;4.80;99.90
1800;DHT22;919;48.274;12.292;2023-02-11T15:31:19;4.80;99.90
1800;DHT22;919;48.274;12.292;2023-02-11T15:33:47;4.80;99.90
1800;DHT22;919;48.274;12.292;2023-02-11T15:36:15;4.70;99.90
1800;DHT22;919;48.274;12.292;2023-02-11T15:38:43;4.80;99.90
1800;DHT22;919;48.274;12.292;2023-02-11T15:44:28;4.70;99.90
1800;DHT22;919;48.274;12.292;2023-02-11T15:46:56;4.70;99.90
1800;DHT22;919;48.274;12.292;2023-02-11T15:49:24;4.80;99.90
1800;DHT22;919;48.274;12.292;2023-02-11T15:51:52;4.80;99.90
1800;DHT22;919;48.274;12.292;2023-02-11T15:54:22;4.80;99.90
1800;DHT22;919;48.274;12.292;2023-02-11T15:56:52;4.80;99.90
1800;DHT22;919;48.274;12.292;2023-02-11T15:59:24;4.70;99.90
1800;DHT22;919;48.274;12.292;2023-02-11T16:01:51;4.60;99.90
1800;DHT22;919;48.274;12.292;2023-02-11T16:04:22;4.60;99.90
1800;DHT22;919;48.274;12.292;2023-02-11T16:06:50;4.50;99.90
1800;DHT22;919;48.274;12.292;2023-02-11T16:09:23;4.50;99.90
1800;DHT22;919;48.274;12.292;2023-02-11T16:11:55;4.30;99.90
1800;DHT22;919;48.274;12.292;2023-02-11T16:14:26;4.20;99.90
1800;DHT22;919;48.274;12.292;2023-02-11T16:16:56;4.10;99.90
1800;DHT22;919;48.274;12.292;2023-02-11T16:19:26;4.10;99.90
1800;DHT22;919;48.274;12.292;2023-02-11T16:21:54;4.00;99.90
1800;DHT22;919;48.274;12.292;2023-02-11T16:24:24;3.90;99.90
1800;DHT22;919;48.274;12.292;2023-02-11T16:26:53;3.90;99.90
1800;DHT22;919;48.274;12.292;2023-02-11T16:29:24;3.80;99.90
1800;DHT22;919;48.274;12.292;2023-02-11T16:31:53;3.70;99.90
1800;DHT22;919;48.274;12.292;2023-02-11T16:34:22;3.60;99.90
1800;DHT22;919;48.274;12.292;2023-02-11T16:36:51;3.40;99.90
1800;DHT22;919;48.274;12.292;2023-02-11T16:39:19;3.30;99.90
1800;DHT22;919;48.274;12.292;2023-02-11T16:41:47;3.30;99.90
1800;DHT22;919;48.274;12.292;2023-02-11T16:44:15;3.20;99.90